createdAt,value
2023-02-11T00:00:30.870Z,99965.48
2023-02-11T00:06:01.360Z,99967.54
2023-02-11T00:11:09.065Z,99963.56
2023-02-11T00:16:17.551Z,99958.01
2023-02-11T00:21:25.571Z,99953.90
2023-02-11T00:26:33.450Z,99944.20
2023-02-11T00:31:41.068Z,99936.66
2023-02-11T00:36:49.855Z,99931.10
2023-02-11T00:41:57.024Z,99931.07
2023-02-11T00:47:04.289Z,99924.73
2023-02-11T00:52:11.624Z,99901.48
2023-02-11T00:57:18.966Z,99889.36
2023-02-11T01:02:26.794Z,99874.80
2023-02-11T01:07:34.122Z,99861.24
2023-02-11T01:12:41.814Z,99849.35
2023-02-11T01:17:49.063Z,99823.08
2023-02-11T01:22:56.384Z,99826.11
2023-02-11T01:28:03.780Z,99839.59
2023-02-11T01:33:11.158Z,99850.14
2023-02-11T01:38:19.235Z,99839.00
2023-02-11T01:43:27.165Z,99832.58
2023-02-11T01:48:36.292Z,99825.89
2023-02-11T01:54:01.633Z,99824.29
2023-02-11T01:59:13.706Z,99818.11
2023-02-11T02:04:21.726Z,99814.83
2023-02-11T02:09:30.546Z,99819.23
2023-02-11T02:14:39.562Z,99799.14
2023-02-11T02:19:57.374Z,99776.70
2023-02-11T02:25:14.787Z,99767.58
2023-02-11T02:30:39.715Z,99755.03
2023-02-11T02:35:49.293Z,99758.98
2023-02-11T02:41:00.248Z,99745.98
2023-02-11T02:46:17.601Z,99732.68
2023-02-11T02:51:32.961Z,99701.93
2023-02-11T02:56:44.282Z,99700.65
2023-02-11T03:01:57.169Z,99690.40
2023-02-11T03:07:05.822Z,99683.30
2023-02-11T03:12:15.256Z,99678.27
2023-02-11T03:17:23.354Z,99692.17
2023-02-11T03:22:34.705Z,99693.52
2023-02-11T03:27:45.185Z,99683.98
2023-02-11T03:32:53.992Z,99680.62
2023-02-11T03:38:03.539Z,99673.30
2023-02-11T03:43:12.112Z,99663.02
2023-02-11T03:48:22.228Z,99649.27
2023-02-11T03:53:29.441Z,99637.84
2023-02-11T03:58:36.919Z,99623.88
2023-02-11T04:03:44.336Z,99602.06
2023-02-11T04:08:51.565Z,99592.50
2023-02-11T04:13:58.890Z,99581.56
2023-02-11T04:19:06.450Z,99579.48
2023-02-11T04:24:13.771Z,99568.84
2023-02-11T04:29:21.262Z,99566.79
2023-02-11T04:34:28.672Z,99562.63
2023-02-11T04:39:36.223Z,99576.61
2023-02-11T04:44:43.970Z,99575.29
2023-02-11T04:49:51.377Z,99572.52
2023-02-11T04:54:58.447Z,99560.14
2023-02-11T05:00:06.343Z,99563.94
2023-02-11T05:05:14.070Z,99552.98
2023-02-11T05:10:21.709Z,99559.33
2023-02-11T05:15:29.225Z,99559.45
2023-02-11T05:20:36.483Z,99558.89
2023-02-11T05:25:43.857Z,99568.00
2023-02-11T05:30:51.195Z,99574.78
2023-02-11T05:36:01.923Z,99571.12
2023-02-11T05:41:09.291Z,99571.04
2023-02-11T05:46:16.572Z,99556.23
2023-02-11T05:51:25.642Z,99531.20
2023-02-11T05:56:32.808Z,99525.80
2023-02-11T06:01:40.103Z,99527.46
2023-02-11T06:06:47.226Z,99515.55
2023-02-11T06:11:54.523Z,99499.52
2023-02-11T06:17:02.080Z,99506.73
2023-02-11T06:22:09.202Z,99510.72
2023-02-11T06:27:16.535Z,99489.90
2023-02-11T06:32:42.843Z,99466.92
2023-02-11T06:37:51.315Z,99471.11
2023-02-11T06:42:58.524Z,99474.21
2023-02-11T06:48:05.927Z,99482.14
2023-02-11T06:53:13.260Z,99492.48
2023-02-11T06:58:20.570Z,99491.44
2023-02-11T07:03:28.175Z,99497.81
2023-02-11T07:08:35.643Z,99493.83
2023-02-11T07:13:42.960Z,99487.06
2023-02-11T07:18:50.442Z,99480.42
2023-02-11T07:23:57.641Z,99486.54
2023-02-11T07:29:05.038Z,99493.00
2023-02-11T07:34:13.393Z,99488.93
2023-02-11T07:39:23.027Z,99485.35
2023-02-11T07:44:30.532Z,99468.60
2023-02-11T07:49:37.843Z,99460.55
2023-02-11T07:54:45.318Z,99461.64
2023-02-11T07:59:52.462Z,99449.52
2023-02-11T08:04:59.461Z,99450.30
2023-02-11T08:10:06.836Z,99458.30
2023-02-11T08:15:14.550Z,99456.35
2023-02-11T08:20:22.249Z,99456.79
2023-02-11T08:25:29.797Z,99473.42
2023-02-11T08:30:37.150Z,99466.67
2023-02-11T08:35:44.333Z,99456.66
2023-02-11T08:40:51.859Z,99457.51
2023-02-11T08:46:01.920Z,99459.02
2023-02-11T08:51:10.555Z,99456.06
2023-02-11T08:56:18.088Z,99457.49
2023-02-11T09:01:26.315Z,99451.16
2023-02-11T09:06:33.744Z,99463.96
2023-02-11T09:11:41.262Z,99468.92
2023-02-11T09:16:48.757Z,99467.48
2023-02-11T09:21:56.011Z,99470.19
2023-02-11T09:27:03.240Z,99472.36
2023-02-11T09:32:10.535Z,99486.11
2023-02-11T09:37:17.836Z,99499.52
2023-02-11T09:42:39.944Z,99484.84
2023-02-11T09:47:51.199Z,99474.13
2023-02-11T09:53:01.656Z,99465.06
2023-02-11T09:58:13.723Z,99460.95
2023-02-11T10:03:39.693Z,99458.23
2023-02-11T10:08:53.854Z,99452.43
2023-02-11T10:14:07.160Z,99444.95
2023-02-11T10:19:28.641Z,99435.64
2023-02-11T10:24:36.209Z,99409.55
2023-02-11T10:29:46.031Z,99392.16
2023-02-11T10:34:55.128Z,99358.33
2023-02-11T10:40:02.407Z,99342.67
2023-02-11T10:45:18.149Z,99320.17
2023-02-11T10:50:28.408Z,99298.40
2023-02-11T10:55:35.968Z,99296.45
2023-02-11T11:00:44.487Z,99299.96
2023-02-11T11:05:53.194Z,99322.42
2023-02-11T11:11:06.323Z,99318.69
2023-02-11T11:16:24.735Z,99318.70
2023-02-11T11:21:35.279Z,99320.64
2023-02-11T11:26:46.620Z,99320.13
2023-02-11T11:31:57.683Z,99309.25
2023-02-11T11:37:13.080Z,99318.21
2023-02-11T11:42:26.834Z,99307.11
2023-02-11T11:47:38.035Z,99294.12
2023-02-11T11:52:48.299Z,99300.91
2023-02-11T11:57:55.861Z,99313.48
2023-02-11T12:03:21.365Z,99318.84
2023-02-11T12:08:35.269Z,99316.48
2023-02-11T12:13:51.729Z,99307.49
2023-02-11T12:19:18.227Z,99321.19
2023-02-11T12:24:35.900Z,99313.83
2023-02-11T12:29:53.811Z,99313.10
2023-02-11T12:35:18.154Z,99307.15
2023-02-11T12:40:31.636Z,99283.73
2023-02-11T12:45:52.486Z,99258.42
2023-02-11T12:51:03.813Z,99235.89
2023-02-11T12:56:14.643Z,99237.18
2023-02-11T13:01:25.166Z,99248.60
2023-02-11T13:06:36.472Z,99264.88
2023-02-11T13:11:52.454Z,99253.55
2023-02-11T13:17:00.540Z,99244.09
2023-02-11T13:22:15.135Z,99233.54
2023-02-11T13:27:27.693Z,99226.81
2023-02-11T13:32:48.196Z,99191.14
2023-02-11T13:37:55.991Z,99149.76
2023-02-11T13:43:04.605Z,99148.77
2023-02-11T13:48:19.962Z,99163.63
2023-02-11T13:53:28.132Z,99174.14
2023-02-11T13:58:40.326Z,99185.33
2023-02-11T14:04:25.370Z,99202.87
2023-02-11T14:09:42.952Z,99210.34
2023-02-11T14:15:18.836Z,99218.16
2023-02-11T14:20:37.412Z,99237.46
2023-02-11T14:25:45.556Z,99236.27
2023-02-11T14:30:59.016Z,99230.84
2023-02-11T14:36:10.150Z,99238.11
2023-02-11T14:41:21.461Z,99240.04
2023-02-11T14:46:30.572Z,99237.73
2023-02-11T14:51:40.493Z,99230.30
2023-02-11T14:56:48.429Z,99236.01
2023-02-11T15:01:56.183Z,99239.25
2023-02-11T15:07:06.590Z,99244.66
2023-02-11T15:12:18.321Z,99252.13
2023-02-11T15:17:26.697Z,99257.52
2023-02-11T15:22:37.502Z,99253.68
2023-02-11T15:27:45.553Z,99250.59
2023-02-11T15:32:58.753Z,99265.17
2023-02-11T15:38:06.480Z,99278.40
2023-02-11T15:43:13.579Z,99274.93
2023-02-11T15:48:22.033Z,99281.35
2023-02-11T15:53:31.750Z,99279.48
2023-02-11T15:58:42.599Z,99288.42
2023-02-11T16:03:51.981Z,99287.09
2023-02-11T16:09:06.266Z,99293.54
2023-02-11T16:14:24.549Z,99285.20
2023-02-11T16:19:32.216Z,99282.81
2023-02-11T16:24:40.337Z,99280.79
2023-02-11T16:29:49.392Z,99289.31
2023-02-11T16:34:58.295Z,99297.05
2023-02-11T16:40:05.704Z,99308.69
2023-02-11T16:45:13.643Z,99312.11
2023-02-11T16:50:23.470Z,99302.70
2023-02-11T16:55:32.673Z,99310.27
2023-02-11T17:00:40.561Z,99314.34
2023-02-11T17:05:55.412Z,99310.06
2023-02-11T17:11:03.893Z,99312.73
2023-02-11T17:16:14.982Z,99313.80
2023-02-11T17:21:22.430Z,99317.02
2023-02-11T17:26:29.735Z,99323.81
2023-02-11T17:31:37.615Z,99322.41
2023-02-11T17:36:44.955Z,99326.90
2023-02-11T17:41:52.492Z,99321.71
2023-02-11T17:47:00.298Z,99321.25
2023-02-11T17:52:07.706Z,99326.59
2023-02-11T17:57:14.647Z,99334.20
2023-02-11T18:02:21.915Z,99333.61
2023-02-11T18:07:30.406Z,99325.56
2023-02-11T18:12:37.925Z,99333.62
2023-02-11T18:17:45.661Z,99337.98
2023-02-11T18:22:53.269Z,99335.96
2023-02-11T18:28:00.695Z,99330.61
2023-02-11T18:33:11.869Z,99331.67
2023-02-11T18:38:19.730Z,99341.57
2023-02-11T18:43:32.252Z,99344.23
2023-02-11T18:48:39.884Z,99345.55
2023-02-11T18:53:47.862Z,99349.99
2023-02-11T18:58:56.614Z,99353.46
2023-02-11T19:04:04.946Z,99355.00
2023-02-11T19:09:12.942Z,99359.94
2023-02-11T19:14:22.482Z,99364.73
2023-02-11T19:19:30.703Z,99369.79
2023-02-11T19:24:37.891Z,99369.20
2023-02-11T19:29:45.720Z,99379.63
2023-02-11T19:34:53.670Z,99371.17
2023-02-11T19:40:01.219Z,99379.95
2023-02-11T19:45:09.199Z,99385.94
2023-02-11T19:50:16.605Z,99383.38
2023-02-11T19:55:23.700Z,99388.61
2023-02-11T20:00:30.779Z,99385.40
2023-02-11T20:05:42.879Z,99385.22
2023-02-11T20:10:50.099Z,99379.73
2023-02-11T20:15:57.777Z,99388.56
2023-02-11T20:21:10.009Z,99385.95
2023-02-11T20:26:17.985Z,99381.00
2023-02-11T20:31:25.598Z,99391.27
2023-02-11T20:36:34.588Z,99397.92
2023-02-11T20:41:41.850Z,99402.06
2023-02-11T20:46:49.699Z,99403.83
2023-02-11T20:51:58.840Z,99406.89
2023-02-11T20:57:07.647Z,99411.20
2023-02-11T21:02:15.144Z,99414.61
2023-02-11T21:07:22.527Z,99415.66
2023-02-11T21:12:30.096Z,99418.25
2023-02-11T21:17:37.836Z,99420.52
2023-02-11T21:22:45.418Z,99426.52
2023-02-11T21:27:52.731Z,99436.44
2023-02-11T21:33:01.483Z,99432.25
2023-02-11T21:38:09.101Z,99439.04
2023-02-11T21:43:16.773Z,99449.02
2023-02-11T21:48:24.364Z,99456.61
2023-02-11T21:53:31.352Z,99468.64
2023-02-11T21:58:38.576Z,99477.77
2023-02-11T22:03:45.794Z,99478.36
2023-02-11T22:08:53.144Z,99480.21
2023-02-11T22:14:00.255Z,99487.23
2023-02-11T22:19:07.969Z,99483.83
2023-02-11T22:24:15.236Z,99486.00
2023-02-11T22:29:22.712Z,99497.52
2023-02-11T22:34:30.290Z,99499.98
2023-02-11T22:39:37.527Z,99509.27
2023-02-11T22:44:44.758Z,99521.25
2023-02-11T22:49:52.323Z,99527.88
2023-02-11T22:55:00.884Z,99531.02
2023-02-11T23:00:10.363Z,99534.97
2023-02-11T23:05:17.844Z,99545.46
2023-02-11T23:10:25.190Z,99548.64
2023-02-11T23:15:32.647Z,99545.20
2023-02-11T23:20:41.556Z,99552.47
2023-02-11T23:25:49.027Z,99549.86
2023-02-11T23:30:56.959Z,99553.81
2023-02-11T23:36:04.706Z,99563.45
2023-02-11T23:41:12.173Z,99561.06
2023-02-11T23:46:19.580Z,99565.84
2023-02-11T23:51:26.689Z,99560.45
2023-02-11T23:56:34.020Z,99563.55
